createdAt,value
2023-03-27T00:02:10.399Z,99868.66
2023-03-27T00:04:36.623Z,99874.75
2023-03-27T00:07:02.821Z,99859.69
2023-03-27T00:09:29.805Z,99822.53
2023-03-27T00:11:56.135Z,99813.22
2023-03-27T00:14:22.386Z,99794.41
2023-03-27T00:16:48.659Z,99775.97
2023-03-27T00:19:14.896Z,99748.50
2023-03-27T00:21:41.091Z,99723.75
2023-03-27T00:24:07.428Z,99715.25
2023-03-27T00:26:33.635Z,99715.25
2023-03-27T00:28:59.846Z,99732.44
2023-03-27T00:31:26.119Z,99726.47
2023-03-27T00:33:52.384Z,99729.59
2023-03-27T00:36:18.591Z,99706.88
2023-03-27T00:38:44.809Z,99705.50
2023-03-27T00:41:11.040Z,99721.31
2023-03-27T00:43:38.881Z,99732.75
2023-03-27T00:46:07.906Z,99726.88
2023-03-27T00:48:34.708Z,99730.38
2023-03-27T00:51:00.902Z,99740.03
2023-03-27T00:53:27.801Z,99728.38
2023-03-27T00:55:54.803Z,99730.53
2023-03-27T00:58:31.723Z,99714.25
2023-03-27T01:00:58.172Z,99731.25
2023-03-27T01:03:25.153Z,99767.66
2023-03-27T01:05:51.663Z,99785.59
2023-03-27T01:08:17.862Z,99745.13
2023-03-27T01:10:51.568Z,99747.13
2023-03-27T01:13:36.511Z,99772.66
2023-03-27T01:16:05.687Z,99797.75
2023-03-27T01:18:34.795Z,99816.41
2023-03-27T01:21:10.946Z,99814.19
2023-03-27T01:23:59.706Z,99806.56
2023-03-27T01:26:37.166Z,99848.44
2023-03-27T01:29:09.980Z,99862.94
2023-03-27T01:31:52.032Z,99853.44
2023-03-27T01:34:21.258Z,99873.63
2023-03-27T01:37:02.797Z,99869.47
2023-03-27T01:39:28.955Z,99839.59
2023-03-27T01:42:33.753Z,99809.31
2023-03-27T01:45:05.882Z,99835.03
2023-03-27T01:47:52.113Z,99864.88
2023-03-27T01:50:22.486Z,99856.59
2023-03-27T01:52:56.713Z,99839.97
2023-03-27T01:55:23.956Z,99835.22
2023-03-27T01:57:51.591Z,99821.53
2023-03-27T02:00:19.769Z,99810.44
2023-03-27T02:02:47.988Z,99785.91
2023-03-27T02:05:16.388Z,99778.97
2023-03-27T02:07:44.171Z,99784.13
2023-03-27T02:10:12.277Z,99769.69
2023-03-27T02:12:39.561Z,99786.53
2023-03-27T02:15:23.288Z,99789.88
2023-03-27T02:17:52.820Z,99793.81
2023-03-27T02:20:19.042Z,99775.84
2023-03-27T02:22:45.426Z,99786.13
2023-03-27T02:25:30.900Z,99805.31
2023-03-27T02:28:00.130Z,99804.94
2023-03-27T02:30:27.101Z,99828.84
2023-03-27T02:32:56.532Z,99836.59
2023-03-27T02:35:24.691Z,99831.66
2023-03-27T02:37:56.763Z,99816.78
2023-03-27T02:40:27.768Z,99803.56
2023-03-27T02:43:04.934Z,99823.56
2023-03-27T02:45:36.786Z,99838.97
2023-03-27T02:48:05.336Z,99800.00
2023-03-27T02:50:43.612Z,99792.69
2023-03-27T02:53:09.821Z,99774.28
2023-03-27T02:55:37.452Z,99808.91
2023-03-27T02:58:05.115Z,99808.31
2023-03-27T03:00:32.103Z,99822.56
2023-03-27T03:03:00.359Z,99808.09
2023-03-27T03:05:26.594Z,99852.06
2023-03-27T03:07:52.838Z,99825.72
2023-03-27T03:10:19.049Z,99816.03
2023-03-27T03:12:45.254Z,99791.50
2023-03-27T03:15:11.452Z,99759.06
2023-03-27T03:17:37.733Z,99759.06
2023-03-27T03:20:04.060Z,99748.00
2023-03-27T03:22:30.267Z,99760.44
2023-03-27T03:24:56.468Z,99783.38
2023-03-27T03:27:22.719Z,99799.59
2023-03-27T03:29:49.020Z,99806.53
2023-03-27T03:32:15.245Z,99817.63
2023-03-27T03:34:41.450Z,99843.13
2023-03-27T03:37:07.696Z,99857.97
2023-03-27T03:39:33.895Z,99863.31
2023-03-27T03:42:00.107Z,99852.78
2023-03-27T03:44:26.316Z,99875.16
2023-03-27T03:46:52.579Z,99914.16
2023-03-27T03:49:18.803Z,99856.25
2023-03-27T03:51:45.006Z,99909.50
2023-03-27T03:54:11.222Z,99920.81
2023-03-27T03:56:37.505Z,99907.06
2023-03-27T03:59:03.785Z,99950.47
2023-03-27T04:01:30.040Z,99946.84
2023-03-27T04:03:56.287Z,99948.34
2023-03-27T04:06:22.561Z,99943.38
2023-03-27T04:08:48.814Z,99934.44
2023-03-27T04:11:15.043Z,99941.06
2023-03-27T04:13:41.249Z,99960.03
2023-03-27T04:16:07.584Z,99980.19
2023-03-27T04:18:34.285Z,99963.72
2023-03-27T04:21:00.779Z,99971.72
2023-03-27T04:23:26.995Z,100010.53
2023-03-27T04:25:53.230Z,100007.94
2023-03-27T04:28:19.443Z,99989.66
2023-03-27T04:30:45.651Z,100008.00
2023-03-27T04:33:11.851Z,100034.78
2023-03-27T04:35:38.093Z,100025.63
2023-03-27T04:38:04.313Z,100030.78
2023-03-27T04:40:30.521Z,100047.34
2023-03-27T04:42:56.731Z,100056.53
2023-03-27T04:45:22.948Z,100068.53
2023-03-27T04:47:49.273Z,100060.84
2023-03-27T04:50:15.605Z,100076.78
2023-03-27T04:52:42.121Z,100062.97
2023-03-27T04:55:08.466Z,100036.22
2023-03-27T04:57:34.756Z,100038.47
2023-03-27T05:00:01.150Z,100035.72
2023-03-27T05:02:27.416Z,100053.28
2023-03-27T05:04:54.100Z,100047.34
2023-03-27T05:07:20.293Z,100010.56
2023-03-27T05:09:46.493Z,100008.41
2023-03-27T05:12:12.701Z,99993.72
2023-03-27T05:14:38.915Z,99992.78
2023-03-27T05:17:05.116Z,99963.00
2023-03-27T05:19:31.323Z,99957.97
2023-03-27T05:21:57.522Z,99971.06
2023-03-27T05:24:23.756Z,99968.53
2023-03-27T05:26:49.969Z,99929.56
2023-03-27T05:29:16.261Z,99942.25
2023-03-27T05:31:42.460Z,99959.56
2023-03-27T05:34:08.672Z,99928.38
2023-03-27T05:36:34.893Z,99874.38
2023-03-27T05:39:01.148Z,99843.34
2023-03-27T05:41:27.356Z,99846.09
2023-03-27T05:43:53.564Z,99814.63
2023-03-27T05:46:20.656Z,99772.69
2023-03-27T05:48:47.684Z,99765.19
2023-03-27T05:51:13.899Z,99759.84
2023-03-27T05:53:40.101Z,99758.06
2023-03-27T05:56:07.105Z,99748.31
2023-03-27T05:58:33.311Z,99759.59
2023-03-27T06:00:59.529Z,99762.38
2023-03-27T06:03:25.958Z,99757.81
2023-03-27T06:05:52.323Z,99749.72
2023-03-27T06:08:20.219Z,99745.72
2023-03-27T06:10:46.419Z,99761.56
2023-03-27T06:13:12.850Z,99764.94
2023-03-27T06:15:39.964Z,99758.00
2023-03-27T06:18:06.241Z,99752.59
2023-03-27T06:20:32.500Z,99734.09
2023-03-27T06:22:58.956Z,99720.59
2023-03-27T06:25:25.356Z,99663.16
2023-03-27T06:27:51.638Z,99615.94
2023-03-27T06:30:18.475Z,99586.94
2023-03-27T06:32:44.755Z,99561.06
2023-03-27T06:35:10.995Z,99575.28
2023-03-27T06:37:37.202Z,99555.25
2023-03-27T06:40:03.555Z,99609.59
2023-03-27T06:42:29.778Z,99571.78
2023-03-27T06:44:55.983Z,99476.56
2023-03-27T06:47:22.315Z,99514.03
2023-03-27T06:49:48.569Z,99485.06
2023-03-27T06:52:14.942Z,99427.34
2023-03-27T06:54:41.143Z,99266.72
2023-03-27T06:57:07.382Z,99262.47
2023-03-27T06:59:33.621Z,99368.47
2023-03-27T07:01:59.864Z,99419.16
2023-03-27T07:04:26.072Z,99442.56
2023-03-27T07:06:52.304Z,99458.28
2023-03-27T07:09:18.528Z,99518.75
2023-03-27T07:11:44.791Z,99580.16
2023-03-27T07:14:11.000Z,99485.44
2023-03-27T07:16:37.293Z,99347.28
2023-03-27T07:19:03.545Z,99362.84
2023-03-27T07:21:29.873Z,99425.25
2023-03-27T07:23:56.111Z,99522.22
2023-03-27T07:26:22.319Z,99566.16
2023-03-27T07:28:48.520Z,99636.78
2023-03-27T07:31:31.640Z,99648.09
2023-03-27T07:34:01.007Z,99651.00
2023-03-27T07:36:27.298Z,99662.16
2023-03-27T07:38:53.495Z,99673.22
2023-03-27T07:41:19.720Z,99662.84
2023-03-27T07:43:45.931Z,99598.97
2023-03-27T07:46:12.211Z,99607.41
2023-03-27T07:48:38.455Z,99607.41
2023-03-27T07:51:13.394Z,99629.31
2023-03-27T07:53:40.231Z,99644.53
2023-03-27T07:56:06.645Z,99628.38
2023-03-27T07:58:32.874Z,99608.91
2023-03-27T08:00:59.543Z,99560.56
2023-03-27T08:03:26.034Z,99617.88
2023-03-27T08:05:52.894Z,99545.44
2023-03-27T08:08:19.099Z,99404.06
2023-03-27T08:10:45.330Z,99488.91
2023-03-27T08:13:11.551Z,99454.47
2023-03-27T08:15:37.923Z,99165.59
2023-03-27T08:18:04.168Z,99126.28
2023-03-27T08:20:30.399Z,98949.97
2023-03-27T08:22:56.632Z,98860.09
2023-03-27T08:25:22.981Z,98872.16
2023-03-27T08:27:49.275Z,98977.88
2023-03-27T08:30:16.857Z,98929.69
2023-03-27T08:32:43.377Z,98889.78
2023-03-27T08:35:09.676Z,98898.25
2023-03-27T08:37:35.882Z,99060.66
2023-03-27T08:40:02.093Z,98972.28
2023-03-27T08:42:34.994Z,98953.03
2023-03-27T08:45:03.968Z,98883.91
2023-03-27T08:47:34.052Z,98714.00
2023-03-27T08:50:00.378Z,98599.28
2023-03-27T08:52:30.442Z,98587.38
2023-03-27T08:55:07.176Z,98580.34
2023-03-27T08:57:33.397Z,98547.47
2023-03-27T08:59:59.752Z,98612.78
2023-03-27T09:02:25.999Z,98869.44
2023-03-27T09:04:52.197Z,98803.34
2023-03-27T09:07:37.291Z,98857.88
2023-03-27T09:10:05.749Z,98847.97
2023-03-27T09:12:35.665Z,98860.44
2023-03-27T09:15:09.469Z,98645.66
2023-03-27T09:17:39.421Z,98671.00
2023-03-27T09:20:16.436Z,98651.06
2023-03-27T09:22:48.608Z,98613.75
2023-03-27T09:25:17.389Z,98659.50
2023-03-27T09:27:43.603Z,98748.72
2023-03-27T09:30:12.841Z,98759.66
2023-03-27T09:32:39.092Z,98891.31
2023-03-27T09:35:05.375Z,98985.88
2023-03-27T09:37:31.671Z,99181.09
2023-03-27T09:39:58.279Z,99237.72
2023-03-27T09:42:25.976Z,99229.06
2023-03-27T09:44:53.228Z,98983.00
2023-03-27T09:47:20.455Z,99023.56
2023-03-27T09:49:47.529Z,99405.78
2023-03-27T09:52:32.374Z,99723.81
2023-03-27T09:54:58.591Z,100060.34
2023-03-27T09:57:28.505Z,100139.13
2023-03-27T09:59:58.339Z,100331.94
2023-03-27T10:02:26.337Z,100506.31
2023-03-27T10:05:05.818Z,100606.25
2023-03-27T10:07:32.026Z,100654.50
2023-03-27T10:10:17.144Z,100693.31
2023-03-27T10:12:43.435Z,100696.50
2023-03-27T10:15:28.434Z,100690.09
2023-03-27T10:17:54.645Z,100693.78
2023-03-27T10:20:20.963Z,100698.59
2023-03-27T10:22:53.393Z,100665.34
2023-03-27T10:25:31.229Z,100643.34
2023-03-27T10:28:07.229Z,100634.06
2023-03-27T10:30:33.922Z,100599.22
2023-03-27T10:33:00.181Z,100497.34
2023-03-27T10:35:28.983Z,100397.56
2023-03-27T10:37:55.200Z,100316.22
2023-03-27T10:40:22.124Z,100187.66
2023-03-27T10:42:48.340Z,100172.34
2023-03-27T10:45:18.285Z,100110.31
2023-03-27T10:47:51.606Z,100090.97
2023-03-27T10:50:22.646Z,100013.06
2023-03-27T10:53:02.770Z,99908.63
2023-03-27T10:55:47.776Z,99871.44
2023-03-27T10:58:24.158Z,99898.84
2023-03-27T11:00:57.994Z,99713.28
2023-03-27T11:03:28.462Z,99746.50
2023-03-27T11:05:54.681Z,99702.25
2023-03-27T11:08:42.916Z,99621.66
2023-03-27T11:11:13.070Z,99530.50
2023-03-27T11:13:40.961Z,99291.44
2023-03-27T11:16:15.983Z,99364.00
2023-03-27T11:18:43.777Z,99365.38
2023-03-27T11:21:14.092Z,99354.09
2023-03-27T11:23:43.248Z,99448.34
2023-03-27T11:26:10.902Z,99258.25
2023-03-27T11:28:46.182Z,99057.25
2023-03-27T11:31:27.339Z,98992.09
2023-03-27T11:33:59.265Z,99087.09
2023-03-27T11:36:36.569Z,99269.19
2023-03-27T11:39:09.575Z,98993.38
2023-03-27T11:41:35.816Z,98953.59
2023-03-27T11:44:02.049Z,98877.63
2023-03-27T11:46:37.592Z,98698.19
2023-03-27T11:49:06.583Z,98706.47
2023-03-27T11:51:36.619Z,98732.78
2023-03-27T11:54:26.154Z,98790.63
2023-03-27T11:56:55.803Z,98772.59
2023-03-27T11:59:27.959Z,98849.59
2023-03-27T12:02:00.151Z,98711.22
2023-03-27T12:04:40.509Z,98636.31
2023-03-27T12:07:35.399Z,98483.03
2023-03-27T12:10:02.511Z,98358.13
2023-03-27T12:12:50.090Z,98398.16
2023-03-27T12:15:31.669Z,98344.66
2023-03-27T12:18:04.131Z,98008.81
2023-03-27T12:20:41.641Z,98053.06
2023-03-27T12:23:18.838Z,98213.22
2023-03-27T12:26:04.861Z,98300.41
2023-03-27T12:28:34.031Z,98286.97
2023-03-27T12:31:21.639Z,98287.72
2023-03-27T12:34:03.487Z,98290.88
2023-03-27T12:36:34.812Z,98244.34
2023-03-27T12:39:01.038Z,98259.50
2023-03-27T12:41:30.929Z,98289.81
2023-03-27T12:43:58.043Z,98317.19
2023-03-27T12:46:24.334Z,98395.84
2023-03-27T12:48:56.661Z,98287.72
2023-03-27T12:51:35.722Z,98447.34
2023-03-27T12:54:24.955Z,98473.16
2023-03-27T12:57:10.193Z,98694.88
2023-03-27T12:59:48.803Z,98813.84
2023-03-27T13:02:15.051Z,98672.84
2023-03-27T13:04:47.397Z,98887.41
2023-03-27T13:07:18.227Z,98563.28
2023-03-27T13:10:03.250Z,98574.81
2023-03-27T13:12:33.343Z,98285.22
2023-03-27T13:15:02.740Z,98255.72
2023-03-27T13:17:41.043Z,98244.19
2023-03-27T13:20:09.961Z,98442.16
2023-03-27T13:22:45.305Z,98498.22
2023-03-27T13:25:21.564Z,98258.25
2023-03-27T13:27:50.848Z,98429.81
2023-03-27T13:30:35.840Z,98385.09
2023-03-27T13:33:15.190Z,98470.72
2023-03-27T13:36:10.786Z,98432.16
2023-03-27T13:39:08.614Z,98672.34
2023-03-27T13:41:37.887Z,98718.13
2023-03-27T13:44:04.657Z,98861.41
2023-03-27T13:46:30.925Z,99349.25
2023-03-27T13:48:57.132Z,99674.59
2023-03-27T13:51:34.125Z,99867.06
2023-03-27T13:54:16.928Z,99928.53
2023-03-27T13:56:46.164Z,99907.44
2023-03-27T13:59:31.145Z,100002.41
2023-03-27T14:02:15.451Z,100170.97
2023-03-27T14:04:57.108Z,100148.34
2023-03-27T14:07:41.916Z,100174.34
2023-03-27T14:10:08.117Z,100213.28
2023-03-27T14:12:45.729Z,100201.78
2023-03-27T14:15:24.157Z,100217.72
2023-03-27T14:18:13.788Z,100202.06
2023-03-27T14:20:41.710Z,100241.75
2023-03-27T14:23:12.424Z,100324.75
2023-03-27T14:25:39.599Z,100445.63
2023-03-27T14:28:06.292Z,100432.94
2023-03-27T14:30:33.889Z,100445.84
2023-03-27T14:33:03.182Z,100526.38
2023-03-27T14:35:34.327Z,100601.72
2023-03-27T14:38:01.177Z,100665.78
2023-03-27T14:40:28.677Z,100719.94
2023-03-27T14:42:55.270Z,100720.25
2023-03-27T14:45:22.210Z,100709.63
2023-03-27T14:47:52.104Z,100651.66
2023-03-27T14:50:18.390Z,100622.09
2023-03-27T14:52:44.632Z,100606.44
2023-03-27T14:55:12.917Z,100592.91
2023-03-27T14:57:39.220Z,100546.84
2023-03-27T15:00:05.840Z,100473.09
2023-03-27T15:02:32.998Z,100382.13
2023-03-27T15:05:09.575Z,100337.66
2023-03-27T15:07:35.871Z,100337.03
2023-03-27T15:10:09.292Z,100315.56
2023-03-27T15:12:35.541Z,100251.81
2023-03-27T15:15:01.772Z,100225.41
2023-03-27T15:17:28.349Z,100188.31
2023-03-27T15:19:55.691Z,100165.25
2023-03-27T15:22:24.936Z,100093.19
2023-03-27T15:24:51.104Z,100029.47
2023-03-27T15:27:21.909Z,100021.69
2023-03-27T15:29:52.566Z,99992.38
2023-03-27T15:32:18.864Z,99922.16
2023-03-27T15:34:45.737Z,99901.72
2023-03-27T15:37:13.522Z,99881.09
2023-03-27T15:39:58.422Z,99930.53
2023-03-27T15:45:37.667Z,100127.69
2023-03-27T15:48:04.730Z,100129.69
2023-03-27T15:50:30.976Z,100218.19
2023-03-27T15:52:57.226Z,100281.66
2023-03-27T15:55:30.850Z,100333.66
2023-03-27T15:57:57.143Z,100376.59
2023-03-27T16:00:23.347Z,100491.69
2023-03-27T16:02:49.680Z,100608.16
2023-03-27T16:05:16.242Z,100686.19
2023-03-27T16:07:43.530Z,100702.97
2023-03-27T16:10:10.071Z,100713.16
2023-03-27T16:12:39.314Z,100710.44
2023-03-27T16:15:08.182Z,100703.25
2023-03-27T16:17:34.832Z,100694.38
2023-03-27T16:20:02.285Z,100679.06
2023-03-27T16:22:32.295Z,100683.25
2023-03-27T16:24:59.266Z,100662.06
2023-03-27T16:27:27.144Z,100630.28
2023-03-27T16:29:53.386Z,100602.63
2023-03-27T16:32:19.991Z,100614.91
2023-03-27T16:34:46.208Z,100617.69
2023-03-27T16:37:12.407Z,100609.88
2023-03-27T16:39:38.619Z,100615.22
2023-03-27T16:42:04.921Z,100625.34
2023-03-27T16:44:31.137Z,100625.94
2023-03-27T16:46:57.351Z,100621.97
2023-03-27T16:49:23.556Z,100610.84
2023-03-27T16:51:49.770Z,100606.56
2023-03-27T16:54:16.006Z,100590.78
2023-03-27T16:56:42.274Z,100587.22
2023-03-27T16:59:08.559Z,100576.44
2023-03-27T17:01:34.852Z,100572.66
2023-03-27T17:04:01.232Z,100579.59
2023-03-27T17:06:27.466Z,100587.13
2023-03-27T17:08:53.783Z,100586.44
2023-03-27T17:11:19.988Z,100587.00
2023-03-27T17:13:46.196Z,100587.78
2023-03-27T17:16:12.398Z,100589.22
2023-03-27T17:18:38.660Z,100595.94
2023-03-27T17:21:04.908Z,100597.72
2023-03-27T17:23:31.119Z,100609.81
2023-03-27T17:25:59.429Z,100612.06
2023-03-27T17:28:25.702Z,100608.59
2023-03-27T17:31:03.836Z,100588.78
2023-03-27T17:33:31.161Z,100565.25
2023-03-27T17:35:57.715Z,100554.63
2023-03-27T17:38:24.218Z,100550.94
2023-03-27T17:40:50.707Z,100520.97
2023-03-27T17:43:16.923Z,100497.75
2023-03-27T17:45:43.140Z,100475.41
2023-03-27T17:48:09.834Z,100462.47
2023-03-27T17:50:36.163Z,100468.44
2023-03-27T17:53:02.387Z,100428.03
2023-03-27T17:55:28.594Z,100384.25
2023-03-27T17:58:07.791Z,100364.38
2023-03-27T18:00:35.799Z,100335.63
2023-03-27T18:03:02.297Z,100301.94
2023-03-27T18:05:28.604Z,100294.00
2023-03-27T18:07:54.815Z,100284.88
2023-03-27T18:10:21.030Z,100231.63
2023-03-27T18:12:47.319Z,100176.91
2023-03-27T18:15:13.803Z,100103.97
2023-03-27T18:17:40.065Z,100044.09
2023-03-27T18:20:06.779Z,99972.56
2023-03-27T18:22:33.041Z,99909.50
2023-03-27T18:24:59.291Z,99863.75
2023-03-27T18:27:25.500Z,99854.84
2023-03-27T18:29:51.712Z,99836.03
2023-03-27T18:32:17.933Z,99831.06
2023-03-27T18:34:44.134Z,99842.59
2023-03-27T18:37:10.341Z,99849.31
2023-03-27T18:39:36.556Z,99854.63
2023-03-27T18:42:02.757Z,99911.53
2023-03-27T18:44:28.964Z,99994.75
2023-03-27T18:46:55.153Z,100062.16
2023-03-27T18:49:24.720Z,100158.44
2023-03-27T18:51:51.620Z,100240.78
2023-03-27T18:54:17.859Z,100324.09
2023-03-27T18:56:44.169Z,100404.38
2023-03-27T18:59:10.441Z,100478.59
2023-03-27T19:01:36.783Z,100512.16
2023-03-27T19:04:03.193Z,100549.97
2023-03-27T19:06:29.553Z,100584.44
2023-03-27T19:08:55.752Z,100611.22
2023-03-27T19:11:22.077Z,100645.22
2023-03-27T19:13:48.276Z,100662.00
2023-03-27T19:16:15.147Z,100666.66
2023-03-27T19:18:41.791Z,100678.72
2023-03-27T19:21:07.998Z,100696.75
2023-03-27T19:23:34.201Z,100693.00
2023-03-27T19:26:10.364Z,100713.94
2023-03-27T19:28:36.578Z,100717.06
2023-03-27T19:31:06.574Z,100731.75
2023-03-27T19:33:32.847Z,100724.84
2023-03-27T19:35:59.119Z,100721.94
2023-03-27T19:38:25.347Z,100713.47
2023-03-27T19:40:51.550Z,100714.28
2023-03-27T19:43:17.752Z,100697.88
2023-03-27T19:46:08.337Z,100700.19
2023-03-27T19:48:40.868Z,100694.03
2023-03-27T19:51:07.079Z,100677.69
2023-03-27T19:53:33.293Z,100662.06
2023-03-27T19:55:59.533Z,100659.13
2023-03-27T19:58:25.985Z,100656.91
2023-03-27T20:00:52.574Z,100647.72
2023-03-27T20:03:19.651Z,100643.09
2023-03-27T20:05:46.503Z,100644.34
2023-03-27T20:08:12.721Z,100640.97
2023-03-27T20:10:38.992Z,100631.63
2023-03-27T20:13:05.222Z,100625.16
2023-03-27T20:15:31.478Z,100615.75
2023-03-27T20:17:57.706Z,100619.94
2023-03-27T20:20:23.981Z,100617.53
2023-03-27T20:22:57.477Z,100624.16
2023-03-27T20:25:24.439Z,100625.41
2023-03-27T20:27:50.654Z,100632.13
2023-03-27T20:30:16.886Z,100608.78
2023-03-27T20:32:43.107Z,100612.53
2023-03-27T20:35:20.673Z,100613.44
2023-03-27T20:37:49.659Z,100623.59
2023-03-27T20:40:16.035Z,100614.28
2023-03-27T20:42:42.524Z,100611.09
2023-03-27T20:45:08.924Z,100601.00
2023-03-27T20:47:35.144Z,100606.22
2023-03-27T20:50:01.385Z,100606.22
2023-03-27T20:52:27.588Z,100595.03
2023-03-27T20:54:53.841Z,100594.94
2023-03-27T20:57:20.160Z,100580.13
2023-03-27T20:59:47.683Z,100572.41
2023-03-27T21:02:15.550Z,100573.53
2023-03-27T21:04:41.804Z,100573.34
2023-03-27T21:07:08.031Z,100559.06
2023-03-27T21:09:34.240Z,100565.75
2023-03-27T21:12:00.469Z,100591.56
2023-03-27T21:14:26.725Z,100529.03
2023-03-27T21:16:52.980Z,100528.25
2023-03-27T21:19:19.221Z,100559.78
2023-03-27T21:21:45.517Z,100569.28
2023-03-27T21:24:11.766Z,100574.22
2023-03-27T21:26:37.997Z,100574.00
2023-03-27T21:29:04.229Z,100572.13
2023-03-27T21:31:30.571Z,100561.66
2023-03-27T21:33:56.924Z,100527.25
2023-03-27T21:36:23.199Z,100495.41
2023-03-27T21:38:49.518Z,100465.50
2023-03-27T21:41:15.959Z,100451.56
2023-03-27T21:43:42.176Z,100471.28
2023-03-27T21:46:08.454Z,100504.94
2023-03-27T21:48:34.687Z,100542.69
2023-03-27T21:51:01.299Z,100593.28
2023-03-27T21:53:27.558Z,100626.72
2023-03-27T21:55:53.771Z,100646.03
2023-03-27T21:58:19.992Z,100654.09
2023-03-27T22:00:46.379Z,100660.22
2023-03-27T22:03:12.596Z,100658.03
2023-03-27T22:05:38.809Z,100648.59
2023-03-27T22:08:05.031Z,100634.09
2023-03-27T22:10:31.243Z,100628.16
2023-03-27T22:12:57.474Z,100613.34
2023-03-27T22:15:23.669Z,100603.47
2023-03-27T22:17:49.944Z,100588.06
2023-03-27T22:20:16.201Z,100588.00
2023-03-27T22:22:42.425Z,100584.81
2023-03-27T22:25:08.724Z,100588.50
2023-03-27T22:27:34.940Z,100616.47
2023-03-27T22:30:01.139Z,100632.50
2023-03-27T22:32:27.375Z,100643.16
2023-03-27T22:34:53.612Z,100666.28
2023-03-27T22:37:19.838Z,100675.91
2023-03-27T22:39:46.122Z,100697.94
2023-03-27T22:42:12.353Z,100711.84
2023-03-27T22:44:38.564Z,100708.88
2023-03-27T22:47:04.781Z,100707.47
2023-03-27T22:49:31.042Z,100714.56
2023-03-27T22:51:57.294Z,100714.03
2023-03-27T22:54:23.490Z,100716.94
2023-03-27T22:56:49.755Z,100720.50
2023-03-27T22:59:16.015Z,100719.88
2023-03-27T23:01:42.302Z,100719.16
2023-03-27T23:04:08.605Z,100722.50
2023-03-27T23:06:34.934Z,100671.09
2023-03-27T23:09:01.171Z,100599.25
2023-03-27T23:11:27.385Z,100525.28
2023-03-27T23:13:53.596Z,100446.53
2023-03-27T23:16:19.812Z,100390.78
2023-03-27T23:18:46.043Z,100341.06
2023-03-27T23:21:12.519Z,100308.63
2023-03-27T23:23:38.947Z,100294.41
2023-03-27T23:26:05.345Z,100272.66
2023-03-27T23:28:35.412Z,100257.03
2023-03-27T23:31:02.357Z,100241.78
2023-03-27T23:33:28.885Z,100232.63
2023-03-27T23:36:00.193Z,100253.00
2023-03-27T23:38:26.587Z,100214.19
2023-03-27T23:40:56.110Z,100210.47
2023-03-27T23:43:22.341Z,100196.56
2023-03-27T23:45:48.591Z,100187.44
2023-03-27T23:48:14.811Z,100195.94
2023-03-27T23:50:41.005Z,100160.06
2023-03-27T23:53:07.220Z,100141.81
2023-03-27T23:55:33.410Z,100155.41
2023-03-27T23:57:59.623Z,100151.06
